createdAt,value
2023-05-24T00:00:27.790Z,27.48
2023-05-24T00:01:27.818Z,27.54
2023-05-24T00:02:27.850Z,27.51
2023-05-24T00:03:27.905Z,27.54
2023-05-24T00:04:27.892Z,27.54
2023-05-24T00:05:27.855Z,27.53
2023-05-24T00:06:27.909Z,27.53
2023-05-24T00:07:27.957Z,27.47
2023-05-24T00:08:27.983Z,27.48
2023-05-24T00:09:28.023Z,27.48
2023-05-24T00:10:28.068Z,27.48
2023-05-24T00:11:28.118Z,27.48
2023-05-24T00:12:28.131Z,27.48
2023-05-24T00:13:28.164Z,27.50
2023-05-24T00:14:28.226Z,27.51
2023-05-24T00:15:28.295Z,27.48
2023-05-24T00:16:28.402Z,27.44
2023-05-24T00:17:28.381Z,27.43
2023-05-24T00:18:28.394Z,27.43
2023-05-24T00:19:28.441Z,27.38
2023-05-24T00:20:28.539Z,27.37
2023-05-24T00:21:28.595Z,27.38
2023-05-24T00:22:28.626Z,27.34
2023-05-24T00:23:28.652Z,27.34
2023-05-24T00:24:28.771Z,27.33
2023-05-24T00:25:28.769Z,27.36
2023-05-24T00:26:28.976Z,27.38
2023-05-24T00:27:28.948Z,27.37
2023-05-24T00:28:28.985Z,27.38
2023-05-24T00:29:31.425Z,27.34
2023-05-24T00:30:28.989Z,27.33
2023-05-24T00:31:29.041Z,27.33
2023-05-24T00:32:29.026Z,27.36
2023-05-24T00:33:28.985Z,27.33
2023-05-24T00:34:28.953Z,27.30
2023-05-24T00:35:28.942Z,27.33
2023-05-24T00:36:28.936Z,27.34
2023-05-24T00:37:28.933Z,27.33
2023-05-24T00:38:28.985Z,27.33
2023-05-24T00:39:28.936Z,27.30
2023-05-24T00:40:28.905Z,27.32
2023-05-24T00:41:28.917Z,27.30
2023-05-24T00:42:28.904Z,27.29
2023-05-24T00:43:28.907Z,27.30
2023-05-24T00:44:28.885Z,27.30
2023-05-24T00:45:28.895Z,27.30
2023-05-24T00:46:28.936Z,27.33
2023-05-24T00:47:28.894Z,27.33
2023-05-24T00:48:28.913Z,27.32
2023-05-24T00:49:28.867Z,27.29
2023-05-24T00:50:28.830Z,27.29
2023-05-24T00:51:28.886Z,27.29
2023-05-24T00:52:28.828Z,27.30
2023-05-24T00:53:28.849Z,27.30
2023-05-24T00:54:28.830Z,27.32
2023-05-24T00:55:28.827Z,27.30
2023-05-24T00:56:28.825Z,27.33
2023-05-24T00:57:28.811Z,27.36
2023-05-24T00:58:28.799Z,27.37
2023-05-24T00:59:28.803Z,27.37
2023-05-24T01:00:28.792Z,27.40
2023-05-24T01:01:28.836Z,27.40
2023-05-24T01:02:28.853Z,27.38
2023-05-24T01:03:28.857Z,27.34
2023-05-24T01:04:28.818Z,27.32
2023-05-24T01:05:28.770Z,27.32
2023-05-24T01:06:28.758Z,27.30
2023-05-24T01:07:28.744Z,27.33
2023-05-24T01:08:28.766Z,27.27
2023-05-24T01:09:28.753Z,27.29
2023-05-24T01:10:28.744Z,27.27
2023-05-24T01:11:28.849Z,27.26
2023-05-24T01:12:28.832Z,27.27
2023-05-24T01:13:28.876Z,27.23
2023-05-24T01:14:28.898Z,27.23
2023-05-24T01:15:28.975Z,27.25
2023-05-24T01:16:29.087Z,27.26
2023-05-24T01:17:29.096Z,27.26
2023-05-24T01:18:29.127Z,27.17
2023-05-24T01:19:29.201Z,27.16
2023-05-24T01:20:29.303Z,27.16
2023-05-24T01:21:29.285Z,27.17
2023-05-24T01:22:29.367Z,27.16
2023-05-24T01:23:29.385Z,27.16
2023-05-24T01:24:29.469Z,27.17
2023-05-24T01:25:29.534Z,27.16
2023-05-24T01:26:29.596Z,27.20
2023-05-24T01:27:29.640Z,27.22
2023-05-24T01:28:29.681Z,27.20
2023-05-24T01:29:29.716Z,27.23
2023-05-24T01:30:29.761Z,27.25
2023-05-24T01:31:29.827Z,27.22
2023-05-24T01:32:29.961Z,27.22
2023-05-24T01:33:29.929Z,27.27
2023-05-24T01:34:29.959Z,27.25
2023-05-24T01:35:29.983Z,27.26
2023-05-24T01:36:30.076Z,27.26
2023-05-24T01:37:30.077Z,27.29
2023-05-24T01:38:30.124Z,27.30
2023-05-24T01:39:30.178Z,27.27
2023-05-24T01:40:30.191Z,27.27
2023-05-24T01:41:30.237Z,27.26
2023-05-24T01:42:30.267Z,27.29
2023-05-24T01:43:30.269Z,27.26
2023-05-24T01:44:30.318Z,27.27
2023-05-24T01:45:30.394Z,27.25
2023-05-24T01:46:30.448Z,27.22
2023-05-24T01:47:30.463Z,27.19
2023-05-24T01:48:30.511Z,27.14
2023-05-24T01:49:30.540Z,27.16
2023-05-24T01:50:30.613Z,27.17
2023-05-24T01:51:30.629Z,27.20
2023-05-24T01:52:30.716Z,27.17
2023-05-24T01:53:30.721Z,27.17
2023-05-24T01:54:30.802Z,27.20
2023-05-24T01:55:30.830Z,27.23
2023-05-24T01:56:30.904Z,27.20
2023-05-24T01:57:30.940Z,27.23
2023-05-24T01:58:30.986Z,27.23
2023-05-24T01:59:31.016Z,27.23
2023-05-24T02:00:31.060Z,27.23
2023-05-24T02:01:31.203Z,27.17
2023-05-24T02:02:31.234Z,27.16
2023-05-24T02:03:31.301Z,27.13
2023-05-24T02:04:31.280Z,27.11
2023-05-24T02:05:31.377Z,27.14
2023-05-24T02:06:31.399Z,27.19
2023-05-24T02:07:31.395Z,27.19
2023-05-24T02:08:31.434Z,27.17
2023-05-24T02:09:31.539Z,27.16
2023-05-24T02:10:31.583Z,27.20
2023-05-24T02:11:31.633Z,27.16
2023-05-24T02:12:31.660Z,27.10
2023-05-24T02:13:31.709Z,27.11
2023-05-24T02:14:31.751Z,27.17
2023-05-24T02:15:31.821Z,27.17
2023-05-24T02:16:31.873Z,27.17
2023-05-24T02:17:31.927Z,27.16
2023-05-24T02:18:31.925Z,27.13
2023-05-24T02:19:31.942Z,27.13
2023-05-24T02:20:32.068Z,27.10
2023-05-24T02:21:32.066Z,27.09
2023-05-24T02:22:32.129Z,27.09
2023-05-24T02:23:32.157Z,27.09
2023-05-24T02:24:32.180Z,27.06
2023-05-24T02:25:32.278Z,27.06
2023-05-24T02:26:32.331Z,27.03
2023-05-24T02:27:32.371Z,27.00
2023-05-24T02:28:32.542Z,27.02
2023-05-24T02:29:32.481Z,27.02
2023-05-24T02:30:32.550Z,27.02
2023-05-24T02:31:32.618Z,27.05
2023-05-24T02:32:32.701Z,27.02
2023-05-24T02:33:32.699Z,26.98
2023-05-24T02:34:32.753Z,27.00
2023-05-24T02:35:32.831Z,26.99
2023-05-24T02:36:32.861Z,26.95
2023-05-24T02:37:32.937Z,26.95
2023-05-24T02:38:33.000Z,26.96
2023-05-24T02:39:33.037Z,26.98
2023-05-24T02:40:33.069Z,27.00
2023-05-24T02:41:33.159Z,26.99
2023-05-24T02:42:33.176Z,27.00
2023-05-24T02:43:33.246Z,26.98
2023-05-24T02:44:33.305Z,26.98
2023-05-24T02:45:33.384Z,26.99
2023-05-24T02:46:33.510Z,27.02
2023-05-24T02:47:33.566Z,27.02
2023-05-24T02:48:33.556Z,27.07
2023-05-24T02:49:33.600Z,27.05
2023-05-24T02:50:33.639Z,27.06
2023-05-24T02:51:33.715Z,27.03
2023-05-24T02:52:33.725Z,27.00
2023-05-24T02:53:33.773Z,27.00
2023-05-24T02:54:33.890Z,27.02
2023-05-24T02:55:33.894Z,27.03
2023-05-24T02:56:33.968Z,26.91
2023-05-24T02:57:34.028Z,26.81
2023-05-24T02:58:34.066Z,26.78
2023-05-24T02:59:34.147Z,26.75
2023-05-24T03:00:34.193Z,26.74
2023-05-24T03:01:34.272Z,26.78
2023-05-24T03:02:34.399Z,26.81
2023-05-24T03:03:34.416Z,26.88
2023-05-24T03:04:34.414Z,26.86
2023-05-24T03:05:34.513Z,26.91
2023-05-24T03:06:34.523Z,26.89
2023-05-24T03:07:34.581Z,26.91
2023-05-24T03:08:34.681Z,26.95
2023-05-24T03:09:34.699Z,26.95
2023-05-24T03:10:34.749Z,26.93
2023-05-24T03:11:34.825Z,26.93
2023-05-24T03:12:34.861Z,26.96
2023-05-24T03:13:35.003Z,26.96
2023-05-24T03:14:34.985Z,26.96
2023-05-24T03:15:35.061Z,26.99
2023-05-24T03:16:35.294Z,26.99
2023-05-24T03:17:35.177Z,27.02
2023-05-24T03:18:35.207Z,27.05
2023-05-24T03:19:35.251Z,26.96
2023-05-24T03:20:35.397Z,26.96
2023-05-24T03:21:35.434Z,26.96
2023-05-24T03:22:35.432Z,26.96
2023-05-24T03:23:35.486Z,26.92
2023-05-24T03:24:35.605Z,26.95
2023-05-24T03:25:35.644Z,26.92
2023-05-24T03:26:35.710Z,26.95
2023-05-24T03:27:35.779Z,26.95
2023-05-24T03:28:35.834Z,26.95
2023-05-24T03:29:35.872Z,26.92
2023-05-24T03:30:35.945Z,26.92
2023-05-24T03:31:36.010Z,26.93
2023-05-24T03:32:36.142Z,26.93
2023-05-24T03:33:36.135Z,26.92
2023-05-24T03:34:36.176Z,26.85
2023-05-24T03:35:36.236Z,26.81
2023-05-24T03:36:36.305Z,26.83
2023-05-24T03:37:36.346Z,26.74
2023-05-24T03:38:36.364Z,26.77
2023-05-24T03:39:36.357Z,26.71
2023-05-24T03:40:36.348Z,26.72
2023-05-24T03:41:36.337Z,26.74
2023-05-24T03:42:36.375Z,26.71
2023-05-24T03:43:36.347Z,26.71
2023-05-24T03:44:36.341Z,26.70
2023-05-24T03:45:39.667Z,26.70
2023-05-24T03:46:36.352Z,26.71
2023-05-24T03:47:36.376Z,26.71
2023-05-24T03:48:36.325Z,26.74
2023-05-24T03:49:36.316Z,26.75
2023-05-24T03:50:36.295Z,26.71
2023-05-24T03:51:36.283Z,26.71
2023-05-24T03:52:36.292Z,26.70
2023-05-24T03:53:36.272Z,26.67
2023-05-24T03:54:36.271Z,26.65
2023-05-24T03:55:36.264Z,26.68
2023-05-24T03:56:36.254Z,26.68
2023-05-24T03:57:36.227Z,26.71
2023-05-24T03:58:36.253Z,26.70
2023-05-24T03:59:36.258Z,26.70
2023-05-24T04:00:36.255Z,26.71
2023-05-24T04:01:36.243Z,26.71
2023-05-24T04:02:36.298Z,26.70
2023-05-24T04:03:36.342Z,26.67
2023-05-24T04:04:36.198Z,26.62
2023-05-24T04:05:36.217Z,26.65
2023-05-24T04:06:36.200Z,26.71
2023-05-24T04:07:36.216Z,26.70
2023-05-24T04:08:36.204Z,26.71
2023-05-24T04:09:36.177Z,26.72
2023-05-24T04:10:36.185Z,26.72
2023-05-24T04:11:36.181Z,26.70
2023-05-24T04:12:36.181Z,26.68
2023-05-24T04:13:36.141Z,26.68
2023-05-24T04:14:36.203Z,26.65
2023-05-24T04:15:36.136Z,26.61
2023-05-24T04:16:36.173Z,26.61
2023-05-24T04:17:36.277Z,26.57
2023-05-24T04:18:36.214Z,26.61
2023-05-24T04:19:36.093Z,26.62
2023-05-24T04:20:36.217Z,26.64
2023-05-24T04:21:36.086Z,26.67
2023-05-24T04:22:36.116Z,26.68
2023-05-24T04:23:36.093Z,26.70
2023-05-24T04:24:36.080Z,26.71
2023-05-24T04:25:36.100Z,26.65
2023-05-24T04:26:36.081Z,26.68
2023-05-24T04:27:36.065Z,26.65
2023-05-24T04:28:36.068Z,26.64
2023-05-24T04:29:36.068Z,26.67
2023-05-24T04:30:36.048Z,26.64
2023-05-24T04:31:36.110Z,26.71
2023-05-24T04:32:36.066Z,26.70
2023-05-24T04:33:36.043Z,26.72
2023-05-24T04:34:36.039Z,26.72
2023-05-24T04:35:36.029Z,26.71
2023-05-24T04:36:36.009Z,26.71
2023-05-24T04:37:36.019Z,26.74
2023-05-24T04:38:35.985Z,26.72
2023-05-24T04:39:35.984Z,26.74
2023-05-24T04:40:35.987Z,26.70
2023-05-24T04:41:35.972Z,26.72
2023-05-24T04:42:35.990Z,26.72
2023-05-24T04:43:35.968Z,26.72
2023-05-24T04:44:35.958Z,26.74
2023-05-24T04:45:35.927Z,26.72
2023-05-24T04:46:36.023Z,26.75
2023-05-24T04:47:35.964Z,26.75
2023-05-24T04:48:35.943Z,26.77
2023-05-24T04:49:35.933Z,26.77
2023-05-24T04:50:35.921Z,26.78
2023-05-24T04:51:35.911Z,26.77
2023-05-24T04:52:35.928Z,26.75
2023-05-24T04:53:35.891Z,26.74
2023-05-24T04:54:35.877Z,26.72
2023-05-24T04:55:35.879Z,26.71
2023-05-24T04:56:35.874Z,26.71
2023-05-24T04:57:35.858Z,26.72
2023-05-24T04:58:37.101Z,26.72
2023-05-24T04:59:35.838Z,26.75
2023-05-24T05:00:35.855Z,26.74
2023-05-24T05:01:35.886Z,26.72
2023-05-24T05:02:35.899Z,26.74
2023-05-24T05:03:35.881Z,26.74
2023-05-24T05:04:35.818Z,26.72
2023-05-24T05:05:35.830Z,26.72
2023-05-24T05:06:35.810Z,26.77
2023-05-24T05:07:35.789Z,26.77
2023-05-24T05:08:35.789Z,26.77
2023-05-24T05:09:35.798Z,26.79
2023-05-24T05:10:35.783Z,26.79
2023-05-24T05:11:35.789Z,26.78
2023-05-24T05:12:35.757Z,26.77
2023-05-24T05:13:35.770Z,26.81
2023-05-24T05:14:35.743Z,26.82
2023-05-24T05:15:35.722Z,26.82
2023-05-24T05:16:35.750Z,26.81
2023-05-24T05:17:35.789Z,26.77
2023-05-24T05:18:35.726Z,26.77
2023-05-24T05:19:35.763Z,26.74
2023-05-24T05:20:35.825Z,26.72
2023-05-24T05:21:35.692Z,26.67
2023-05-24T05:22:35.741Z,26.70
2023-05-24T05:23:35.686Z,26.67
2023-05-24T05:24:35.695Z,26.68
2023-05-24T05:25:35.656Z,26.65
2023-05-24T05:26:35.669Z,26.65
2023-05-24T05:27:35.688Z,26.68
2023-05-24T05:28:35.666Z,26.68
2023-05-24T05:29:35.667Z,26.67
2023-05-24T05:30:35.643Z,26.70
2023-05-24T05:31:35.645Z,26.64
2023-05-24T05:32:35.687Z,26.65
2023-05-24T05:33:35.657Z,26.70
2023-05-24T05:34:35.615Z,26.68
2023-05-24T05:35:35.626Z,26.71
2023-05-24T05:36:35.607Z,26.70
2023-05-24T05:37:35.596Z,26.72
2023-05-24T05:38:35.583Z,26.68
2023-05-24T05:39:35.589Z,26.71
2023-05-24T05:40:35.602Z,26.70
2023-05-24T05:41:35.576Z,26.71
2023-05-24T05:42:35.548Z,26.72
2023-05-24T05:43:35.583Z,26.77
2023-05-24T05:44:35.556Z,26.79
2023-05-24T05:45:35.571Z,26.85
2023-05-24T05:46:35.599Z,26.91
2023-05-24T05:47:35.632Z,26.91
2023-05-24T05:48:35.576Z,26.96
2023-05-24T05:49:35.569Z,26.96
2023-05-24T05:50:35.540Z,26.95
2023-05-24T05:51:35.517Z,26.95
2023-05-24T05:52:35.517Z,26.96
2023-05-24T05:53:35.508Z,27.05
2023-05-24T05:54:35.494Z,27.10
2023-05-24T05:55:35.486Z,27.11
2023-05-24T05:56:35.496Z,27.11
2023-05-24T05:57:35.547Z,27.10
2023-05-24T05:58:35.446Z,27.11
2023-05-24T05:59:35.449Z,27.16
2023-05-24T06:00:35.460Z,27.19
2023-05-24T06:01:35.487Z,27.23
2023-05-24T06:02:35.672Z,27.30
2023-05-24T06:03:35.540Z,27.36
2023-05-24T06:04:35.448Z,27.36
2023-05-24T06:05:35.422Z,27.33
2023-05-24T06:06:35.429Z,27.36
2023-05-24T06:07:35.403Z,27.36
2023-05-24T06:08:35.475Z,27.32
2023-05-24T06:09:35.398Z,27.22
2023-05-24T06:10:35.372Z,27.11
2023-05-24T06:11:35.403Z,26.99
2023-05-24T06:12:35.392Z,26.88
2023-05-24T06:13:35.366Z,26.79
2023-05-24T06:14:35.353Z,26.67
2023-05-24T06:15:35.389Z,26.57
2023-05-24T06:16:35.437Z,26.48
2023-05-24T06:17:35.411Z,26.41
2023-05-24T06:18:35.333Z,26.36
2023-05-24T06:19:35.327Z,26.27
2023-05-24T06:20:35.426Z,26.21
2023-05-24T06:21:35.463Z,26.19
2023-05-24T06:22:35.504Z,26.16
2023-05-24T06:23:35.560Z,26.12
2023-05-24T06:24:35.636Z,26.09
2023-05-24T06:25:35.716Z,26.06
2023-05-24T06:26:35.767Z,26.02
2023-05-24T06:27:35.798Z,26.02
2023-05-24T06:28:35.855Z,25.97
2023-05-24T06:29:35.936Z,25.95
2023-05-24T06:30:35.934Z,25.91
2023-05-24T06:31:36.059Z,25.89
2023-05-24T06:32:36.086Z,25.89
2023-05-24T06:33:37.904Z,25.88
2023-05-24T06:34:36.178Z,25.89
2023-05-24T06:35:36.202Z,25.86
2023-05-24T06:36:36.286Z,25.85
2023-05-24T06:37:36.314Z,25.85
2023-05-24T06:38:36.405Z,25.85
2023-05-24T06:39:36.672Z,25.85
2023-05-24T06:40:36.500Z,25.86
2023-05-24T06:41:36.575Z,25.83
2023-05-24T06:42:36.618Z,25.86
2023-05-24T06:43:36.668Z,25.82
2023-05-24T06:44:36.750Z,25.85
2023-05-24T06:45:36.824Z,25.83
2023-05-24T06:46:36.879Z,25.83
2023-05-24T06:47:37.136Z,25.85
2023-05-24T06:48:37.036Z,25.85
2023-05-24T06:49:37.070Z,25.86
2023-05-24T06:50:37.547Z,25.82
2023-05-24T06:51:37.206Z,25.83
2023-05-24T06:52:37.239Z,25.82
2023-05-24T06:53:37.296Z,25.85
2023-05-24T06:54:37.406Z,25.83
2023-05-24T06:55:37.455Z,25.85
2023-05-24T06:56:37.493Z,25.83
2023-05-24T06:57:37.570Z,25.86
2023-05-24T06:58:37.627Z,25.81
2023-05-24T06:59:37.757Z,25.85
2023-05-24T07:00:37.754Z,25.82
2023-05-24T07:01:37.920Z,25.85
2023-05-24T07:02:37.942Z,25.82
2023-05-24T07:03:37.963Z,25.85
2023-05-24T07:04:38.039Z,25.85
2023-05-24T07:05:38.077Z,25.83
2023-05-24T07:06:38.156Z,25.83
2023-05-24T07:07:38.231Z,25.85
2023-05-24T07:08:38.265Z,25.82
2023-05-24T07:09:38.324Z,25.83
2023-05-24T07:10:38.376Z,25.83
2023-05-24T07:11:38.503Z,25.85
2023-05-24T07:12:38.531Z,25.83
2023-05-24T07:13:38.578Z,25.83
2023-05-24T07:14:38.655Z,25.85
2023-05-24T07:15:38.705Z,25.85
2023-05-24T07:16:38.835Z,25.81
2023-05-24T07:17:38.840Z,25.83
2023-05-24T07:18:38.890Z,25.86
2023-05-24T07:19:38.945Z,25.83
2023-05-24T07:20:39.115Z,25.85
2023-05-24T07:21:39.057Z,25.85
2023-05-24T07:22:39.123Z,25.83
2023-05-24T07:23:39.182Z,25.85
2023-05-24T07:24:39.235Z,25.85
2023-05-24T07:25:39.256Z,25.83
2023-05-24T07:26:39.366Z,25.82
2023-05-24T07:27:39.403Z,25.83
2023-05-24T07:28:39.477Z,25.86
2023-05-24T07:29:39.548Z,25.85
2023-05-24T07:30:39.595Z,25.82
2023-05-24T07:31:39.788Z,25.86
2023-05-24T07:32:39.875Z,25.85
2023-05-24T07:33:39.837Z,25.83
2023-05-24T07:34:39.879Z,25.85
2023-05-24T07:35:39.952Z,25.85
2023-05-24T07:36:39.991Z,25.86
2023-05-24T07:37:40.034Z,25.86
2023-05-24T07:38:40.122Z,25.83
2023-05-24T07:39:40.204Z,25.86
2023-05-24T07:40:40.426Z,25.88
2023-05-24T07:41:40.315Z,25.88
2023-05-24T07:42:40.363Z,25.88
2023-05-24T07:43:40.453Z,25.92
2023-05-24T07:44:40.526Z,25.91
2023-05-24T07:45:40.827Z,25.88
2023-05-24T07:46:40.680Z,25.86
2023-05-24T07:47:40.764Z,25.83
2023-05-24T07:48:40.714Z,25.81
2023-05-24T07:49:40.744Z,25.76
2023-05-24T07:50:40.964Z,25.71
2023-05-24T07:51:40.837Z,25.71
2023-05-24T07:52:40.825Z,25.66
2023-05-24T07:53:40.842Z,25.66
2023-05-24T07:54:40.834Z,25.62
2023-05-24T07:55:41.066Z,25.61
2023-05-24T07:56:40.847Z,25.60
2023-05-24T07:57:40.818Z,25.55
2023-05-24T07:58:40.845Z,25.54
2023-05-24T07:59:40.907Z,25.52
2023-05-24T08:00:40.792Z,25.48
2023-05-24T08:01:40.807Z,25.48
2023-05-24T08:02:40.896Z,25.45
2023-05-24T08:03:40.959Z,25.45
2023-05-24T08:04:40.840Z,25.42
2023-05-24T08:05:41.033Z,25.42
2023-05-24T08:06:40.928Z,25.40
2023-05-24T08:07:40.866Z,25.37
2023-05-24T08:08:40.886Z,25.37
2023-05-24T08:09:40.923Z,25.36
2023-05-24T08:10:40.924Z,25.36
2023-05-24T08:11:40.949Z,25.33
2023-05-24T08:12:40.936Z,25.31
2023-05-24T08:13:40.936Z,25.31
2023-05-24T08:14:40.966Z,25.30
2023-05-24T08:15:41.112Z,25.29
2023-05-24T08:16:41.198Z,25.29
2023-05-24T08:17:41.185Z,25.27
2023-05-24T08:18:41.062Z,25.27
2023-05-24T08:19:41.085Z,25.26
2023-05-24T08:20:41.221Z,25.24
2023-05-24T08:21:41.114Z,25.23
2023-05-24T08:22:41.136Z,25.21
2023-05-24T08:23:41.153Z,25.20
2023-05-24T08:24:41.176Z,25.19
2023-05-24T08:25:41.343Z,25.19
2023-05-24T08:26:41.208Z,25.17
2023-05-24T08:27:41.255Z,25.17
2023-05-24T08:28:41.302Z,25.19
2023-05-24T08:29:41.285Z,25.17
2023-05-24T08:30:41.348Z,25.14
2023-05-24T08:31:41.478Z,25.16
2023-05-24T08:32:41.441Z,25.13
2023-05-24T08:33:41.399Z,25.14
2023-05-24T08:34:41.407Z,25.12
2023-05-24T08:35:41.533Z,25.12
2023-05-24T08:36:41.448Z,25.12
2023-05-24T08:37:41.497Z,25.12
2023-05-24T08:38:41.546Z,25.12
2023-05-24T08:39:41.565Z,25.10
2023-05-24T08:40:41.612Z,25.07
2023-05-24T08:41:41.685Z,25.09
2023-05-24T08:42:41.686Z,25.07
2023-05-24T08:43:41.720Z,25.05
2023-05-24T08:44:41.775Z,25.06
2023-05-24T08:45:42.073Z,25.09
2023-05-24T08:46:41.907Z,25.06
2023-05-24T08:47:42.102Z,25.06
2023-05-24T08:48:41.914Z,25.05
2023-05-24T08:49:41.940Z,25.07
2023-05-24T08:50:41.983Z,25.07
2023-05-24T08:51:42.029Z,25.06
2023-05-24T08:52:42.029Z,25.06
2023-05-24T08:53:42.056Z,25.07
2023-05-24T08:54:42.142Z,25.06
2023-05-24T08:55:42.327Z,25.07
2023-05-24T08:56:42.171Z,25.07
2023-05-24T08:57:42.167Z,25.09
2023-05-24T08:58:42.220Z,25.09
2023-05-24T08:59:42.307Z,25.07
2023-05-24T09:00:42.270Z,25.06
2023-05-24T09:01:42.410Z,25.06
2023-05-24T09:02:42.565Z,25.09
2023-05-24T09:03:42.448Z,25.07
2023-05-24T09:04:42.405Z,25.07
2023-05-24T09:05:42.714Z,25.07
2023-05-24T09:06:42.484Z,25.10
2023-05-24T09:07:42.513Z,25.06
2023-05-24T09:08:44.009Z,25.10
2023-05-24T09:09:42.576Z,25.10
2023-05-24T09:10:54.164Z,25.10
2023-05-24T09:11:43.596Z,25.12
2023-05-24T09:12:42.640Z,25.10
2023-05-24T09:13:42.664Z,25.12
2023-05-24T09:14:42.600Z,25.10
2023-05-24T09:15:42.808Z,25.10
2023-05-24T09:16:42.618Z,25.13
2023-05-24T09:17:42.606Z,25.13
2023-05-24T09:18:42.571Z,25.14
2023-05-24T09:19:42.541Z,25.14
2023-05-24T09:20:42.801Z,25.16
2023-05-24T09:21:42.566Z,25.14
2023-05-24T09:22:42.818Z,25.17
2023-05-24T09:23:42.510Z,25.16
2023-05-24T09:24:42.489Z,25.17
2023-05-24T09:25:42.508Z,25.21
2023-05-24T09:26:42.483Z,25.19
2023-05-24T09:27:42.534Z,25.23
2023-05-24T09:28:42.508Z,25.24
2023-05-24T09:29:42.516Z,25.30
2023-05-24T09:30:42.746Z,25.30
2023-05-24T09:31:42.611Z,25.27
2023-05-24T09:32:42.616Z,25.29
2023-05-24T09:33:42.566Z,25.27
2023-05-24T09:34:42.598Z,25.27
2023-05-24T09:35:42.590Z,25.30
2023-05-24T09:36:42.616Z,25.29
2023-05-24T09:37:42.636Z,25.30
2023-05-24T09:38:42.681Z,25.29
2023-05-24T09:39:42.645Z,25.31
2023-05-24T09:40:42.815Z,25.27
2023-05-24T09:41:42.706Z,25.29
2023-05-24T09:42:42.706Z,25.29
2023-05-24T09:43:42.743Z,25.27
2023-05-24T09:44:42.774Z,25.26
2023-05-24T09:45:42.761Z,25.24
2023-05-24T09:46:42.792Z,25.23
2023-05-24T09:47:42.851Z,25.23
2023-05-24T09:48:42.863Z,25.23
2023-05-24T09:49:42.850Z,25.19
2023-05-24T09:50:43.928Z,25.21
2023-05-24T09:51:43.027Z,25.19
2023-05-24T09:52:42.980Z,25.19
2023-05-24T09:53:42.920Z,25.17
2023-05-24T09:54:42.942Z,25.19
2023-05-24T09:55:43.013Z,25.17
2023-05-24T09:56:43.032Z,25.19
2023-05-24T09:57:43.023Z,25.13
2023-05-24T09:58:43.058Z,25.16
2023-05-24T09:59:43.088Z,25.13
2023-05-24T10:00:43.631Z,25.13
2023-05-24T10:01:43.171Z,25.14
2023-05-24T10:02:52.870Z,25.14
2023-05-24T10:03:44.175Z,25.16
2023-05-24T10:04:43.187Z,25.13
2023-05-24T10:05:43.112Z,25.12
2023-05-24T10:06:43.189Z,25.12
2023-05-24T10:07:43.150Z,25.10
2023-05-24T10:08:43.151Z,25.10
2023-05-24T10:09:43.136Z,25.12
2023-05-24T10:10:43.372Z,25.10
2023-05-24T10:11:43.098Z,25.12
2023-05-24T10:12:43.080Z,25.09
2023-05-24T10:13:43.130Z,25.13
2023-05-24T10:14:43.085Z,25.12
2023-05-24T10:15:43.062Z,25.10
2023-05-24T10:16:43.084Z,25.10
2023-05-24T10:17:43.076Z,25.13
2023-05-24T10:18:43.066Z,25.09
2023-05-24T10:19:43.062Z,25.09
2023-05-24T10:20:43.463Z,25.07
2023-05-24T10:21:43.078Z,25.06
2023-05-24T10:22:43.043Z,25.06
2023-05-24T10:23:43.050Z,25.07
2023-05-24T10:24:43.059Z,25.09
2023-05-24T10:25:43.041Z,25.06
2023-05-24T10:26:43.111Z,25.09
2023-05-24T10:27:43.087Z,25.09
2023-05-24T10:28:43.139Z,25.06
2023-05-24T10:29:43.156Z,25.06
2023-05-24T10:30:43.587Z,25.05
2023-05-24T10:31:43.207Z,25.03
2023-05-24T10:32:43.267Z,25.07
2023-05-24T10:33:43.276Z,25.06
2023-05-24T10:34:43.292Z,25.03
2023-05-24T10:35:43.325Z,25.03
2023-05-24T10:36:43.404Z,25.06
2023-05-24T10:37:43.362Z,25.07
2023-05-24T10:38:43.429Z,25.05
2023-05-24T10:39:43.482Z,25.03
2023-05-24T10:40:43.441Z,25.06
2023-05-24T10:41:43.544Z,25.05
2023-05-24T10:42:43.554Z,25.05
2023-05-24T10:43:45.091Z,25.05
2023-05-24T10:44:44.535Z,25.03
2023-05-24T10:45:43.543Z,25.06
2023-05-24T10:46:43.559Z,25.03
2023-05-24T10:47:43.565Z,25.06
2023-05-24T10:48:43.518Z,25.05
2023-05-24T10:49:43.482Z,25.05
2023-05-24T10:50:43.720Z,25.03
2023-05-24T10:51:43.510Z,25.02
2023-05-24T10:52:43.501Z,25.00
2023-05-24T10:53:43.528Z,25.00
2023-05-24T10:54:56.063Z,24.99
2023-05-24T10:55:44.524Z,24.99
2023-05-24T10:56:43.496Z,24.97
2023-05-24T10:57:43.463Z,25.00
2023-05-24T10:58:43.465Z,24.97
2023-05-24T10:59:43.432Z,24.94
2023-05-24T11:00:43.448Z,24.97
2023-05-24T11:01:43.476Z,24.96
2023-05-24T11:02:43.447Z,25.03
2023-05-24T11:03:43.431Z,24.99
2023-05-24T11:04:43.470Z,25.06
2023-05-24T11:05:46.326Z,25.12
2023-05-24T11:06:43.418Z,25.13
2023-05-24T11:07:43.410Z,25.12
2023-05-24T11:08:43.398Z,25.09
2023-05-24T11:09:43.368Z,25.13
2023-05-24T11:10:43.696Z,25.14
2023-05-24T11:11:43.398Z,25.16
2023-05-24T11:12:43.371Z,25.14
2023-05-24T11:13:43.356Z,25.19
2023-05-24T11:14:43.330Z,25.23
2023-05-24T11:15:43.312Z,25.23
2023-05-24T11:16:43.430Z,25.27
2023-05-24T11:17:43.749Z,25.33
2023-05-24T11:18:43.334Z,25.38
2023-05-24T11:19:43.320Z,25.42
2023-05-24T11:20:43.726Z,25.49
2023-05-24T11:21:43.375Z,25.57
2023-05-24T11:22:43.327Z,25.61
2023-05-24T11:23:43.290Z,25.66
2023-05-24T11:24:43.289Z,25.72
2023-05-24T11:25:43.286Z,25.76
2023-05-24T11:26:43.268Z,25.83
2023-05-24T11:27:43.277Z,25.89
2023-05-24T11:28:43.326Z,25.93
2023-05-24T11:29:43.282Z,25.97
2023-05-24T11:30:43.446Z,26.04
2023-05-24T11:31:44.698Z,26.04
2023-05-24T11:32:43.278Z,26.07
2023-05-24T11:33:43.219Z,26.13
2023-05-24T11:34:43.213Z,26.20
2023-05-24T11:35:43.228Z,26.21
2023-05-24T11:36:43.197Z,26.26
2023-05-24T11:37:46.796Z,26.28
2023-05-24T11:38:43.190Z,26.30
2023-05-24T11:39:43.178Z,26.30
2023-05-24T11:40:43.410Z,26.30
2023-05-24T11:41:43.258Z,26.33
2023-05-24T11:42:43.173Z,26.33
2023-05-24T11:43:43.185Z,26.34
2023-05-24T11:44:43.164Z,26.36
2023-05-24T11:45:43.201Z,26.40
2023-05-24T11:46:43.144Z,26.40
2023-05-24T11:47:43.165Z,26.40
2023-05-24T11:48:43.140Z,26.40
2023-05-24T11:49:43.103Z,26.41
2023-05-24T11:50:49.487Z,26.43
2023-05-24T11:51:44.182Z,26.47
2023-05-24T11:52:43.097Z,26.46
2023-05-24T11:53:43.115Z,26.48
2023-05-24T11:54:43.107Z,26.50
2023-05-24T11:55:43.267Z,26.52
2023-05-24T11:56:43.102Z,26.54
2023-05-24T11:57:43.049Z,26.58
2023-05-24T11:58:43.068Z,26.59
2023-05-24T11:59:43.169Z,26.61
2023-05-24T12:00:43.367Z,26.64
2023-05-24T12:01:43.053Z,26.61
2023-05-24T12:02:43.212Z,26.62
2023-05-24T12:03:43.187Z,26.62
2023-05-24T12:04:43.119Z,26.62
2023-05-24T12:05:43.003Z,26.62
2023-05-24T12:06:43.068Z,26.61
2023-05-24T12:07:42.989Z,26.64
2023-05-24T12:08:42.971Z,26.67
2023-05-24T12:09:42.996Z,26.65
2023-05-24T12:10:43.222Z,26.64
2023-05-24T12:11:43.068Z,26.64
2023-05-24T12:12:46.047Z,26.62
2023-05-24T12:13:42.957Z,26.64
2023-05-24T12:14:42.961Z,26.61
2023-05-24T12:15:42.963Z,26.62
2023-05-24T12:16:42.954Z,26.61
2023-05-24T12:17:42.939Z,26.62
2023-05-24T12:18:55.213Z,26.65
2023-05-24T12:19:43.903Z,26.65
2023-05-24T12:20:43.287Z,26.62
2023-05-24T12:21:42.987Z,26.64
2023-05-24T12:22:42.908Z,26.62
2023-05-24T12:23:42.901Z,26.64
2023-05-24T12:24:42.923Z,26.68
2023-05-24T12:25:42.895Z,26.68
2023-05-24T12:26:42.885Z,26.65
2023-05-24T12:27:42.869Z,26.70
2023-05-24T12:28:42.885Z,26.68
2023-05-24T12:29:42.901Z,26.70
2023-05-24T12:30:43.140Z,26.71
2023-05-24T12:31:42.900Z,26.68
2023-05-24T12:32:42.981Z,26.70
2023-05-24T12:33:42.820Z,26.68
2023-05-24T12:34:43.002Z,26.71
2023-05-24T12:35:42.827Z,26.68
2023-05-24T12:36:42.834Z,26.65
2023-05-24T12:37:42.828Z,26.65
2023-05-24T12:38:42.814Z,26.65
2023-05-24T12:39:43.987Z,26.70
2023-05-24T12:40:42.954Z,26.71
2023-05-24T12:41:42.797Z,26.74
2023-05-24T12:42:42.792Z,26.74
2023-05-24T12:43:42.782Z,26.72
2023-05-24T12:44:42.866Z,26.74
2023-05-24T12:45:42.788Z,26.71
2023-05-24T12:46:42.772Z,26.70
2023-05-24T12:47:42.763Z,26.68
2023-05-24T12:48:42.736Z,26.67
2023-05-24T12:49:42.740Z,26.68
2023-05-24T12:50:42.891Z,26.65
2023-05-24T12:51:42.708Z,26.65
2023-05-24T12:52:42.711Z,26.67